createdAt,value
2022-08-18T00:01:14.615Z,10.43
2022-08-18T00:03:55.778Z,11.88
2022-08-18T00:06:29.913Z,10.48
2022-08-18T00:08:59.468Z,11.27
2022-08-18T00:11:41.245Z,13.50
2022-08-18T00:14:21.208Z,17.33
2022-08-18T00:16:52.832Z,13.05
2022-08-18T00:19:43.561Z,16.10
2022-08-18T00:22:14.997Z,14.50
2022-08-18T00:24:47.542Z,14.00
2022-08-18T00:27:22.015Z,14.55
2022-08-18T00:29:53.164Z,14.55
2022-08-18T00:32:23.812Z,20.13
2022-08-18T00:34:52.097Z,13.80
2022-08-18T00:37:24.183Z,17.67
2022-08-18T00:39:54.128Z,17.23
2022-08-18T00:42:27.627Z,18.92
2022-08-18T00:45:02.276Z,19.23
2022-08-18T00:47:32.902Z,17.23
2022-08-18T00:50:14.955Z,20.48
2022-08-18T00:52:49.891Z,19.55
2022-08-18T00:55:19.745Z,18.67
2022-08-18T00:57:51.982Z,18.20
2022-08-18T01:00:20.910Z,18.40
2022-08-18T01:02:57.002Z,21.38
2022-08-18T01:05:34.006Z,21.88
2022-08-18T01:08:04.144Z,23.85
2022-08-18T01:10:35.701Z,19.95
2022-08-18T01:13:03.744Z,21.27
2022-08-18T01:15:32.327Z,16.88
2022-08-18T01:18:19.890Z,19.73
2022-08-18T01:21:14.450Z,21.30
2022-08-18T01:23:44.120Z,17.63
2022-08-18T01:26:11.882Z,18.60
2022-08-18T01:28:42.865Z,16.05
2022-08-18T01:31:11.914Z,17.90
2022-08-18T01:33:42.440Z,22.55
2022-08-18T01:36:14.511Z,15.80
2022-08-18T01:38:44.888Z,18.98
2022-08-18T01:41:27.427Z,19.02
2022-08-18T01:43:59.026Z,16.83
2022-08-18T01:46:28.451Z,20.17
2022-08-18T01:48:58.920Z,17.67
2022-08-18T01:51:40.360Z,20.08
2022-08-18T01:54:12.952Z,21.85
2022-08-18T01:56:43.266Z,21.30
2022-08-18T01:59:15.343Z,18.42
2022-08-18T02:01:50.357Z,16.55
2022-08-18T02:04:40.576Z,18.25
2022-08-18T02:07:12.678Z,19.95
2022-08-18T02:09:44.497Z,27.92
2022-08-18T02:12:13.543Z,18.98
2022-08-18T02:14:42.319Z,19.40
2022-08-18T02:17:14.836Z,18.40
2022-08-18T02:19:45.014Z,20.55
2022-08-18T02:22:15.427Z,22.20
2022-08-18T02:24:45.430Z,20.67
2022-08-18T02:27:15.601Z,19.20
2022-08-18T02:29:43.841Z,19.65
2022-08-18T02:32:11.886Z,17.15
2022-08-18T02:34:40.871Z,19.15
2022-08-18T02:37:14.386Z,18.83
2022-08-18T02:39:44.890Z,23.45
2022-08-18T02:42:14.771Z,19.67
2022-08-18T02:44:42.772Z,20.13
2022-08-18T02:47:10.875Z,21.92
2022-08-18T02:49:39.130Z,20.45
2022-08-18T02:52:07.340Z,18.05
2022-08-18T02:54:36.490Z,18.90
2022-08-18T02:57:10.645Z,18.85
2022-08-18T02:59:40.091Z,17.38
2022-08-18T03:02:09.426Z,20.38
2022-08-18T03:04:38.061Z,16.95
2022-08-18T03:07:08.916Z,19.17
2022-08-18T03:09:37.409Z,24.67
2022-08-18T03:12:07.596Z,17.48
2022-08-18T03:14:37.723Z,21.30
2022-08-18T03:17:08.483Z,15.70
2022-08-18T03:19:37.832Z,17.55
2022-08-18T03:22:27.296Z,18.55
2022-08-18T03:24:56.952Z,16.30
2022-08-18T03:27:25.256Z,17.10
2022-08-18T03:29:54.631Z,17.52
2022-08-18T03:32:22.786Z,18.50
2022-08-18T03:34:50.788Z,18.98
2022-08-18T03:37:18.733Z,18.38
2022-08-18T03:39:47.114Z,16.30
2022-08-18T03:42:15.167Z,18.88
2022-08-18T03:44:43.107Z,15.80
2022-08-18T03:47:12.686Z,18.10
2022-08-18T03:49:41.721Z,19.80
2022-08-18T03:52:10.762Z,19.25
2022-08-18T03:54:39.865Z,19.13
2022-08-18T03:57:10.018Z,19.90
2022-08-18T03:59:40.129Z,18.20
2022-08-18T04:02:08.098Z,32.85
2022-08-18T04:04:38.374Z,21.25
2022-08-18T04:07:14.917Z,19.10
2022-08-18T04:09:43.209Z,20.20
2022-08-18T04:12:17.928Z,25.90
2022-08-18T04:14:49.337Z,26.58
2022-08-18T04:17:23.688Z,24.02
2022-08-18T04:19:53.304Z,26.58
2022-08-18T04:22:21.273Z,31.38
2022-08-18T04:24:50.762Z,24.38
2022-08-18T04:27:19.805Z,27.85
2022-08-18T04:29:48.206Z,23.63
2022-08-18T04:32:16.288Z,27.60
2022-08-18T04:34:44.453Z,28.73
2022-08-18T04:37:15.330Z,22.40
2022-08-18T04:39:44.294Z,28.05
2022-08-18T04:42:12.669Z,22.27
2022-08-18T04:44:40.921Z,22.08
2022-08-18T04:47:09.577Z,22.77
2022-08-18T04:49:38.178Z,28.83
2022-08-18T04:52:39.740Z,25.98
2022-08-18T04:55:11.749Z,28.38
2022-08-18T04:57:39.955Z,26.50
2022-08-18T05:00:09.960Z,29.73
2022-08-18T05:02:37.931Z,26.48
2022-08-18T05:05:06.801Z,39.50
2022-08-18T05:07:37.151Z,26.25
2022-08-18T05:10:05.797Z,23.58
2022-08-18T05:12:35.366Z,17.38
2022-08-18T05:15:03.329Z,25.38
2022-08-18T05:17:31.485Z,20.70
2022-08-18T05:20:01.869Z,22.23
2022-08-18T05:22:31.809Z,26.38
2022-08-18T05:25:00.601Z,22.33
2022-08-18T05:27:35.264Z,25.27
2022-08-18T05:30:04.036Z,23.38
2022-08-18T05:32:46.781Z,18.98
2022-08-18T05:35:21.587Z,20.65
2022-08-18T05:38:03.623Z,20.90
2022-08-18T05:40:31.930Z,20.48
2022-08-18T05:43:02.396Z,20.80
2022-08-18T05:45:30.796Z,28.73
2022-08-18T05:48:01.821Z,23.38
2022-08-18T05:50:33.413Z,24.70
2022-08-18T05:53:13.309Z,22.73
2022-08-18T05:56:05.512Z,20.98
2022-08-18T05:58:39.747Z,19.92
2022-08-18T06:01:17.400Z,16.38
2022-08-18T06:03:49.607Z,17.92
2022-08-18T06:06:21.611Z,22.40
2022-08-18T06:08:57.698Z,18.92
2022-08-18T06:11:26.918Z,21.38
2022-08-18T06:13:59.386Z,13.50
2022-08-18T06:16:45.273Z,20.00
2022-08-18T06:19:26.976Z,19.77
2022-08-18T06:22:03.420Z,13.38
2022-08-18T06:24:37.617Z,15.75
2022-08-18T06:27:13.204Z,12.35
2022-08-18T06:29:54.467Z,17.15
2022-08-18T06:32:34.991Z,19.55
2022-08-18T06:35:18.052Z,14.48
2022-08-18T06:38:08.033Z,12.30
2022-08-18T06:40:36.673Z,14.60
2022-08-18T06:43:07.627Z,15.13
2022-08-18T06:45:40.316Z,17.05
2022-08-18T06:48:15.173Z,14.45
2022-08-18T06:50:50.073Z,12.65
2022-08-18T06:53:25.908Z,11.90
2022-08-18T06:55:55.742Z,17.00
2022-08-18T06:58:31.400Z,18.33
2022-08-18T07:01:03.593Z,16.13
2022-08-18T07:03:48.459Z,17.00
2022-08-18T07:06:30.156Z,13.95
2022-08-18T07:09:20.603Z,14.77
2022-08-18T07:12:06.029Z,16.75
2022-08-18T07:14:44.465Z,13.80
2022-08-18T07:17:15.043Z,17.75
2022-08-18T07:19:43.038Z,15.73
2022-08-18T07:22:13.496Z,15.70
2022-08-18T07:24:44.758Z,14.88
2022-08-18T07:27:18.282Z,13.35
2022-08-18T07:30:03.328Z,14.43
2022-08-18T07:32:36.734Z,17.42
2022-08-18T07:35:08.236Z,19.52
2022-08-18T07:37:42.163Z,15.38
2022-08-18T07:40:23.154Z,13.90
2022-08-18T07:43:02.294Z,13.43
2022-08-18T07:45:38.092Z,13.38
2022-08-18T07:48:37.740Z,14.85
2022-08-18T07:51:09.162Z,14.60
2022-08-18T07:53:55.628Z,13.55
2022-08-18T07:56:37.807Z,11.52
2022-08-18T07:59:13.995Z,13.15
2022-08-18T08:01:50.687Z,13.32
2022-08-18T08:04:32.252Z,12.63
2022-08-18T08:07:25.838Z,13.77
2022-08-18T08:10:13.357Z,11.05
2022-08-18T08:12:46.658Z,12.77
2022-08-18T08:15:27.138Z,14.45
2022-08-18T08:18:02.102Z,16.52
2022-08-18T08:20:37.895Z,18.92
2022-08-18T08:23:17.667Z,14.27
2022-08-18T08:26:00.684Z,17.83
2022-08-18T08:28:40.844Z,14.75
2022-08-18T08:34:10.743Z,13.50
2022-08-18T08:36:41.536Z,18.63
2022-08-18T08:39:16.948Z,15.95
2022-08-18T08:41:51.280Z,12.40
2022-08-18T08:44:25.949Z,16.80
2022-08-18T08:47:08.872Z,14.35
2022-08-18T08:49:44.481Z,15.50
2022-08-18T08:52:20.203Z,12.85
2022-08-18T08:54:54.847Z,12.07
2022-08-18T08:57:27.145Z,16.88
2022-08-18T08:59:58.388Z,13.68
2022-08-18T09:02:50.297Z,11.60
2022-08-18T09:05:23.195Z,10.65
2022-08-18T09:08:16.849Z,11.13
2022-08-18T09:11:08.375Z,9.40
2022-08-18T09:14:06.553Z,8.68
2022-08-18T09:16:49.602Z,9.43
2022-08-18T09:19:45.484Z,9.32
2022-08-18T09:22:25.378Z,9.43
2022-08-18T09:25:34.110Z,12.27
2022-08-18T09:28:11.944Z,10.52
2022-08-18T09:30:52.051Z,8.85
2022-08-18T09:33:48.285Z,9.82
2022-08-18T09:36:28.767Z,10.57
2022-08-18T09:39:25.913Z,14.32
2022-08-18T09:41:58.586Z,7.25
2022-08-18T09:45:02.100Z,8.00
2022-08-18T09:47:59.941Z,8.05
2022-08-18T09:50:57.249Z,12.73
2022-08-18T09:53:57.285Z,7.90
2022-08-18T09:57:16.810Z,8.88
2022-08-18T10:00:24.408Z,5.82
2022-08-18T10:03:25.979Z,6.32
2022-08-18T10:06:15.647Z,5.97
2022-08-18T10:09:36.972Z,4.35
2022-08-18T10:12:19.272Z,8.63
2022-08-18T10:15:09.340Z,3.60
2022-08-18T10:18:01.543Z,6.70
2022-08-18T10:20:57.514Z,5.90
2022-08-18T10:27:24.338Z,6.10
2022-08-18T10:29:58.158Z,6.95
2022-08-18T10:32:41.247Z,5.20
2022-08-18T10:35:52.744Z,6.13
2022-08-18T10:38:30.827Z,5.95
2022-08-18T10:41:15.181Z,4.95
2022-08-18T10:44:00.543Z,7.03
2022-08-18T10:46:46.794Z,5.03
2022-08-18T10:49:25.688Z,5.72
2022-08-18T10:52:29.398Z,4.28
2022-08-18T10:55:47.838Z,4.82
2022-08-18T10:58:40.314Z,4.40
2022-08-18T11:01:24.925Z,4.45
2022-08-18T11:04:11.686Z,4.82
2022-08-18T11:06:48.404Z,4.88
2022-08-18T11:09:26.619Z,8.18
2022-08-18T11:11:59.535Z,8.55
2022-08-18T11:15:01.079Z,5.03
2022-08-18T11:21:45.056Z,4.85
2022-08-18T11:24:46.348Z,4.57
2022-08-18T11:27:22.591Z,6.50
2022-08-18T11:29:52.962Z,4.43
2022-08-18T11:32:26.147Z,4.47
2022-08-18T11:35:03.560Z,4.75
2022-08-18T11:37:48.504Z,8.88
2022-08-18T11:43:42.873Z,5.75
2022-08-18T11:46:16.982Z,5.95
2022-08-18T11:48:55.694Z,3.85
2022-08-18T11:52:02.262Z,4.47
2022-08-18T11:54:50.256Z,4.47
2022-08-18T11:57:46.847Z,4.57
2022-08-18T12:00:42.970Z,4.60
2022-08-18T12:03:24.066Z,5.15
2022-08-18T12:06:19.403Z,4.88
2022-08-18T12:08:59.131Z,5.30
2022-08-18T12:11:35.118Z,5.13
2022-08-18T12:14:32.380Z,7.03
2022-08-18T12:17:06.535Z,6.28
2022-08-18T12:19:36.404Z,5.50
2022-08-18T12:22:18.609Z,4.20
2022-08-18T12:24:48.608Z,5.55
2022-08-18T12:27:22.776Z,4.15
2022-08-18T12:29:53.443Z,4.20
2022-08-18T12:32:49.738Z,4.63
2022-08-18T12:35:14.588Z,5.35
2022-08-18T12:38:03.622Z,4.43
2022-08-18T12:40:36.774Z,10.65
2022-08-18T12:43:07.795Z,5.90
2022-08-18T12:45:52.693Z,8.75
2022-08-18T12:48:25.789Z,9.07
2022-08-18T12:50:59.580Z,5.07
2022-08-18T12:53:57.874Z,5.22
2022-08-18T12:56:33.476Z,5.07
2022-08-18T12:59:15.011Z,6.63
2022-08-18T13:01:48.857Z,5.43
2022-08-18T13:04:26.796Z,4.50
2022-08-18T13:07:24.305Z,5.88
2022-08-18T13:09:54.632Z,4.85
2022-08-18T13:12:25.713Z,5.10
2022-08-18T13:14:57.969Z,6.63
2022-08-18T13:17:30.158Z,5.15
2022-08-18T13:23:27.787Z,5.50
2022-08-18T13:26:03.335Z,4.55
2022-08-18T13:28:36.195Z,7.47
2022-08-18T13:31:23.329Z,5.03
2022-08-18T13:33:58.122Z,5.88
2022-08-18T13:36:46.124Z,4.78
2022-08-18T13:39:22.988Z,6.72
2022-08-18T13:41:57.510Z,7.10
2022-08-18T13:44:32.272Z,5.28
2022-08-18T13:47:07.541Z,7.10
2022-08-18T13:49:38.877Z,6.35
2022-08-18T13:52:33.086Z,5.63
2022-08-18T13:55:13.796Z,7.03
2022-08-18T14:01:41.974Z,6.65
2022-08-18T14:04:22.936Z,8.55
2022-08-18T14:07:28.376Z,8.30
2022-08-18T14:10:04.427Z,8.18
2022-08-18T14:12:48.353Z,6.60
2022-08-18T14:15:21.324Z,6.43
2022-08-18T14:17:53.834Z,7.53
2022-08-18T14:20:48.251Z,7.97
2022-08-18T14:23:36.521Z,5.65
2022-08-18T14:26:37.771Z,12.07
2022-08-18T14:29:11.189Z,5.22
2022-08-18T14:31:45.150Z,7.22
2022-08-18T14:34:13.172Z,5.70
2022-08-18T14:36:51.120Z,6.57
2022-08-18T14:39:21.031Z,6.13
2022-08-18T14:41:55.922Z,5.72
2022-08-18T14:44:32.547Z,8.48
2022-08-18T14:47:13.350Z,5.13
2022-08-18T14:49:48.427Z,6.53
2022-08-18T14:52:20.027Z,5.15
2022-08-18T14:54:51.109Z,7.85
2022-08-18T14:59:47.566Z,5.20
2022-08-18T15:02:16.070Z,5.80
2022-08-18T15:04:56.015Z,6.82
2022-08-18T15:07:27.698Z,5.35
2022-08-18T15:10:15.207Z,5.45
2022-08-18T15:12:47.042Z,5.30
2022-08-18T15:15:18.068Z,5.32
2022-08-18T15:17:50.240Z,6.82
2022-08-18T15:20:28.831Z,4.55
2022-08-18T15:23:22.787Z,5.80
2022-08-18T15:25:58.869Z,5.85
2022-08-18T15:28:33.257Z,5.65
2022-08-18T15:31:49.580Z,6.13
2022-08-18T15:33:52.625Z,6.07
2022-08-18T15:36:24.098Z,4.45
2022-08-18T15:39:04.501Z,11.40
2022-08-18T15:41:35.442Z,8.23
2022-08-18T15:44:13.572Z,5.15
2022-08-18T15:46:41.982Z,5.90
2022-08-18T15:49:16.132Z,7.18
2022-08-18T15:51:49.339Z,5.45
2022-08-18T15:54:21.346Z,4.25
2022-08-18T15:56:57.734Z,7.22
2022-08-18T15:59:39.702Z,7.30
2022-08-18T16:02:11.777Z,9.80
2022-08-18T16:04:41.406Z,5.35
2022-08-18T16:07:18.057Z,13.05
2022-08-18T16:10:06.053Z,5.22
2022-08-18T16:12:37.302Z,6.35
2022-08-18T16:15:19.371Z,5.00
2022-08-18T16:17:56.864Z,5.03
2022-08-18T16:20:29.345Z,5.90
2022-08-18T16:25:42.434Z,4.10
2022-08-18T16:28:13.172Z,4.97
2022-08-18T16:30:46.594Z,5.80
2022-08-18T16:33:17.983Z,3.90
2022-08-18T16:35:51.526Z,4.28
2022-08-18T16:38:22.904Z,4.90
2022-08-18T16:40:52.401Z,7.55
2022-08-18T16:43:20.340Z,3.72
2022-08-18T16:45:52.780Z,5.13
2022-08-18T16:48:23.836Z,8.23
2022-08-18T16:50:52.784Z,5.00
2022-08-18T16:53:22.311Z,4.53
2022-08-18T16:55:51.856Z,4.38
2022-08-18T16:58:36.169Z,5.93
2022-08-18T17:01:21.844Z,3.03
2022-08-18T17:04:13.560Z,3.17
2022-08-18T17:06:49.348Z,2.67
2022-08-18T17:09:17.796Z,3.67
2022-08-18T17:11:52.073Z,2.97
2022-08-18T17:14:21.998Z,4.35
2022-08-18T17:16:54.968Z,4.13
2022-08-18T17:19:24.586Z,5.60
2022-08-18T17:21:52.564Z,3.63
2022-08-18T17:24:31.776Z,2.88
2022-08-18T17:27:22.371Z,3.17
2022-08-18T17:30:04.002Z,2.95
2022-08-18T17:32:41.859Z,3.55
2022-08-18T17:35:14.648Z,3.63
2022-08-18T17:37:49.486Z,2.75
2022-08-18T17:40:22.135Z,2.67
2022-08-18T17:42:56.230Z,2.80
2022-08-18T17:45:24.845Z,2.70
2022-08-18T17:48:01.493Z,2.25
2022-08-18T17:50:53.017Z,6.63
2022-08-18T17:53:23.148Z,2.30
2022-08-18T17:55:59.652Z,2.67
2022-08-18T17:58:35.960Z,2.35
2022-08-18T18:01:04.286Z,2.63
2022-08-18T18:03:34.115Z,3.20
2022-08-18T18:06:13.135Z,2.50
2022-08-18T18:08:56.586Z,4.28
2022-08-18T18:11:32.171Z,3.00
2022-08-18T18:14:23.951Z,2.42
2022-08-18T18:17:03.333Z,2.63
2022-08-18T18:19:33.018Z,2.50
2022-08-18T18:22:08.599Z,2.67
2022-08-18T18:24:40.074Z,2.17
2022-08-18T18:27:28.287Z,7.28
2022-08-18T18:30:02.161Z,2.40
2022-08-18T18:32:32.792Z,2.30
2022-08-18T18:35:17.385Z,2.60
2022-08-18T18:37:50.514Z,3.33
2022-08-18T18:40:32.732Z,2.75
2022-08-18T18:43:23.640Z,2.47
2022-08-18T18:46:27.335Z,2.22
2022-08-18T18:49:08.658Z,2.55
2022-08-18T18:51:44.205Z,7.72
2022-08-18T18:54:24.610Z,2.55
2022-08-18T18:56:54.806Z,2.50
2022-08-18T18:59:40.296Z,2.10
2022-08-18T19:02:34.872Z,4.05
2022-08-18T19:05:14.553Z,2.90
2022-08-18T19:07:54.461Z,2.72
2022-08-18T19:10:30.598Z,2.70
2022-08-18T19:13:02.034Z,2.88
2022-08-18T19:15:36.461Z,2.47
2022-08-18T19:18:22.974Z,2.70
2022-08-18T19:21:44.757Z,2.58
2022-08-18T19:23:47.947Z,2.50
2022-08-18T19:26:27.315Z,2.70
2022-08-18T19:29:10.336Z,17.77
2022-08-18T19:31:45.760Z,3.00
2022-08-18T19:34:30.067Z,2.63
2022-08-18T19:37:04.107Z,4.38
2022-08-18T19:39:41.905Z,2.90
2022-08-18T19:42:15.882Z,2.10
2022-08-18T19:45:13.115Z,3.05
2022-08-18T19:47:40.976Z,3.40
2022-08-18T19:50:16.786Z,2.53
2022-08-18T19:53:05.690Z,2.40
2022-08-18T19:55:47.711Z,2.80
2022-08-18T19:58:36.203Z,2.50
2022-08-18T20:01:21.118Z,1.60
2022-08-18T20:04:02.773Z,2.33
2022-08-18T20:07:01.378Z,3.17
2022-08-18T20:10:02.444Z,2.50
2022-08-18T20:12:53.460Z,4.28
2022-08-18T20:15:23.744Z,9.27
2022-08-18T20:18:05.846Z,4.30
2022-08-18T20:20:44.476Z,2.45
2022-08-18T20:23:56.901Z,3.00
2022-08-18T20:26:43.507Z,3.22
2022-08-18T20:29:14.666Z,3.40
2022-08-18T20:31:58.929Z,5.00
2022-08-18T20:34:30.512Z,3.33
2022-08-18T20:37:01.050Z,4.00
2022-08-18T20:39:42.689Z,4.78
2022-08-18T20:42:45.369Z,3.20
2022-08-18T20:45:29.154Z,3.88
2022-08-18T20:48:14.407Z,2.75
2022-08-18T20:50:58.902Z,3.33
2022-08-18T20:53:50.226Z,3.33
2022-08-18T20:56:31.999Z,4.50
2022-08-18T20:59:09.485Z,3.20
2022-08-18T21:01:38.962Z,4.38
2022-08-18T21:04:07.790Z,2.92
2022-08-18T21:06:42.171Z,3.50
2022-08-18T21:09:17.631Z,3.35
2022-08-18T21:11:49.668Z,7.63
2022-08-18T21:14:27.093Z,4.88
2022-08-18T21:16:59.280Z,3.35
2022-08-18T21:19:30.472Z,3.65
2022-08-18T21:22:01.241Z,4.22
2022-08-18T21:24:32.883Z,5.72
2022-08-18T21:27:06.851Z,3.88
2022-08-18T21:29:49.331Z,4.15
2022-08-18T21:32:21.854Z,3.55
2022-08-18T21:34:51.725Z,2.83
2022-08-18T21:37:21.037Z,3.33
2022-08-18T21:39:53.023Z,3.75
2022-08-18T21:42:27.505Z,3.50
2022-08-18T21:44:57.303Z,3.05
2022-08-18T21:47:31.677Z,3.75
2022-08-18T21:50:10.174Z,3.38
2022-08-18T21:52:40.237Z,3.97
2022-08-18T21:55:19.299Z,4.75
2022-08-18T21:58:02.971Z,3.42
2022-08-18T22:00:33.985Z,3.63
2022-08-18T22:03:26.955Z,2.97
2022-08-18T22:06:02.459Z,3.03
2022-08-18T22:08:33.647Z,4.55
2022-08-18T22:11:59.762Z,3.72
2022-08-18T22:14:53.579Z,3.67
2022-08-18T22:17:29.416Z,3.30
2022-08-18T22:20:35.066Z,3.60
2022-08-18T22:23:26.642Z,2.70
2022-08-18T22:25:55.099Z,3.55
2022-08-18T22:28:28.276Z,3.90
2022-08-18T22:31:01.847Z,3.70
2022-08-18T22:33:30.253Z,3.00
2022-08-18T22:35:59.279Z,3.80
2022-08-18T22:38:30.332Z,4.80
2022-08-18T22:41:00.210Z,3.47
2022-08-18T22:43:28.327Z,3.22
2022-08-18T22:45:56.661Z,3.47
2022-08-18T22:48:28.799Z,3.05
2022-08-18T22:51:00.315Z,9.88
2022-08-18T22:53:28.608Z,4.80
2022-08-18T22:55:59.395Z,4.07
2022-08-18T22:58:34.041Z,4.40
2022-08-18T23:01:05.827Z,4.75
2022-08-18T23:03:41.777Z,7.10
2022-08-18T23:06:11.607Z,6.85
2022-08-18T23:08:55.412Z,4.68
2022-08-18T23:11:25.269Z,5.20
2022-08-18T23:13:54.052Z,4.13
2022-08-18T23:16:31.487Z,3.95
2022-08-18T23:19:03.116Z,3.60
2022-08-18T23:21:35.413Z,3.13
2022-08-18T23:24:05.860Z,6.00
2022-08-18T23:26:34.473Z,3.63
2022-08-18T23:29:05.628Z,3.90
2022-08-18T23:31:35.297Z,4.25
2022-08-18T23:34:05.408Z,5.82
2022-08-18T23:36:36.074Z,3.75
2022-08-18T23:39:04.073Z,4.22
2022-08-18T23:41:33.562Z,4.38
2022-08-18T23:44:01.874Z,4.03
2022-08-18T23:46:32.128Z,5.07
2022-08-18T23:49:02.393Z,4.07
2022-08-18T23:51:36.957Z,3.75
2022-08-18T23:54:09.532Z,4.13
2022-08-18T23:56:38.461Z,5.90
2022-08-18T23:59:08.157Z,4.22
